Cummingsville, Minnesota
Current Conditions -  °F | °C
As of 2:15 PM on Saturday 25 Oct 2014 (Local Time) from KFKA Reporting Station
Clear Clear  
Wind Chill: 61°   Ceiling: Unl
Heat Index: 61°   Visibility: 10mi
Dew Point: 31°   Wind: 18mph
Humidity: 32%   Direction: 310°NW
Pressure: 30.04"   Gusts: 25mph
Location:  43.8233°N, 92.1103°W
Report Text: KFKA 251915Z AUTO 31016G22KT 10SM CLR 16/M01 A3004 RMK AO2 T01611006
Loading
Personal Weather Stations






























Interactive Weather Map
Tropical Storm Tracking
New forecast layout! Learn more

10-Day Weather Forecast

Advertisements
Track Severe Weather on mobile